Time;durP1;ratioP1;P1;durP2;ratioP2;P2;SDS_P1;SDS_P2;PMS_P1;PMS_P2;Temp;Humidity;BMP_temperature;BMP_pressure;BME280_temperature;BME280_humidity;BME280_pressure;Samples;Min_cycle;Max_cycle;Signal;HPM_P1;HPM_P2
2022/06/27 00:00:39;;;;;;;4.80;2.10;;;20.50;99.90;;;;;;5115967;28;20550;-58
2022/06/27 00:03:06;;;;;;;2.20;2.00;;;20.50;99.90;;;;;;5115341;28;20993;-57
2022/06/27 00:05:34;;;;;;;2.53;1.60;;;20.60;99.90;;;;;;5116019;28;20527;-57
2022/06/27 00:08:02;;;;;;;3.30;1.70;;;20.70;99.90;;;;;;5115907;28;20438;-57
2022/06/27 00:10:29;;;;;;;1.57;1.47;;;20.50;99.90;;;;;;5115920;28;20896;-58
2022/06/27 00:12:57;;;;;;;2.30;1.37;;;20.30;99.90;;;;;;5115587;28;20533;-58
2022/06/27 00:15:24;;;;;;;1.77;1.50;;;20.30;99.90;;;;;;5115666;27;20446;-58
2022/06/27 00:17:52;;;;;;;2.33;1.37;;;20.30;99.90;;;;;;5116074;28;20495;-58
2022/06/27 00:20:19;;;;;;;2.20;1.63;;;20.30;99.90;;;;;;5115467;28;20554;-58
2022/06/27 00:22:46;;;;;;;4.57;1.70;;;20.00;99.90;;;;;;5115630;28;20443;-58
2022/06/27 00:25:15;;;;;;;2.97;2.23;;;19.90;99.90;;;;;;5115703;28;20449;-58
2022/06/27 00:27:42;;;;;;;5.77;1.67;;;19.60;99.90;;;;;;5115819;28;20497;-58
2022/06/27 00:30:12;;;;;;;3.93;1.50;;;19.50;99.90;;;;;;5115520;28;20469;-57
2022/06/27 00:32:39;;;;;;;5.83;1.60;;;19.30;99.90;;;;;;5115327;28;20535;-57
2022/06/27 00:35:08;;;;;;;1.60;1.30;;;19.10;99.90;;;;;;5115213;28;20541;-56
2022/06/27 00:37:35;;;;;;;2.83;2.63;;;18.80;99.90;;;;;;5115369;28;20534;-57
2022/06/27 00:40:03;;;;;;;2.83;1.90;;;18.70;99.90;;;;;;5115055;28;20932;-57
2022/06/27 00:42:32;;;;;;;6.43;1.60;;;18.70;99.90;;;;;;5115400;28;20461;-56
2022/06/27 00:44:59;;;;;;;4.30;2.10;;;18.50;99.90;;;;;;5115357;28;20533;-57
2022/06/27 00:47:26;;;;;;;5.60;2.40;;;18.60;99.90;;;;;;5115118;28;20945;-57
2022/06/27 00:49:53;;;;;;;6.77;2.53;;;18.70;99.90;;;;;;5115296;28;20499;-57
2022/06/27 00:52:21;;;;;;;4.00;2.40;;;18.60;99.90;;;;;;5115098;28;20492;-57
2022/06/27 00:54:49;;;;;;;5.87;2.07;;;18.40;99.90;;;;;;5115018;28;20533;-57
2022/06/27 00:57:17;;;;;;;6.97;2.53;;;18.30;99.90;;;;;;5115014;28;20474;-57
2022/06/27 00:59:46;;;;;;;4.70;1.97;;;18.40;99.90;;;;;;5114704;28;20476;-57
2022/06/27 01:02:13;;;;;;;2.80;1.90;;;18.40;99.90;;;;;;5114839;28;20534;-57
2022/06/27 01:04:41;;;;;;;3.10;1.70;;;18.50;99.90;;;;;;5114900;28;20442;-57
2022/06/27 01:07:09;;;;;;;6.27;2.10;;;18.50;99.90;;;;;;5114989;28;20457;-57
2022/06/27 01:09:37;;;;;;;2.00;1.80;;;18.60;99.90;;;;;;5115021;28;20549;-57
2022/06/27 01:12:05;;;;;;;3.50;2.47;;;18.50;99.90;;;;;;5114546;28;20602;-57
2022/06/27 01:14:32;;;;;;;8.13;2.27;;;18.40;99.90;;;;;;5113686;28;20478;-57
2022/06/27 01:17:01;;;;;;;2.13;1.80;;;18.50;99.90;;;;;;5114400;28;20462;-57
2022/06/27 01:19:29;;;;;;;4.47;1.80;;;18.40;99.90;;;;;;5114767;28;20463;-57
2022/06/27 01:21:57;;;;;;;2.80;1.70;;;18.50;99.90;;;;;;5114653;28;20848;-57
2022/06/27 01:24:28;;;;;;;2.53;1.90;;;18.40;99.90;;;;;;5114711;28;20447;-57
2022/06/27 01:26:55;;;;;;;3.90;1.83;;;18.50;99.90;;;;;;5114238;28;20992;-57
2022/06/27 01:29:23;;;;;;;2.50;1.67;;;18.50;99.90;;;;;;5114544;28;20466;-57
2022/06/27 01:31:50;;;;;;;2.00;1.80;;;18.50;99.90;;;;;;5114403;28;20486;-57
2022/06/27 01:34:18;;;;;;;2.07;1.53;;;18.60;99.90;;;;;;5114556;28;20457;-57
2022/06/27 01:36:47;;;;;;;3.33;1.60;;;18.60;99.90;;;;;;5114083;28;20542;-57
2022/06/27 01:39:15;;;;;;;1.53;1.20;;;18.70;99.90;;;;;;5114368;28;20462;-57
2022/06/27 01:41:45;;;;;;;3.40;1.50;;;18.70;99.90;;;;;;5114253;28;20809;-57
2022/06/27 01:44:13;;;;;;;3.80;1.60;;;18.60;99.90;;;;;;5114431;28;20427;-57
2022/06/27 01:46:43;;;;;;;2.40;1.67;;;18.70;99.90;;;;;;5114221;28;20470;-57
2022/06/27 01:49:10;;;;;;;2.40;1.70;;;18.50;99.90;;;;;;5114240;28;20545;-57
2022/06/27 01:51:38;;;;;;;2.80;1.63;;;18.60;99.90;;;;;;5114026;28;20461;-57
2022/06/27 01:54:06;;;;;;;2.03;1.40;;;18.70;99.90;;;;;;5113908;28;20960;-58
2022/06/27 01:56:33;;;;;;;6.20;2.00;;;18.70;99.90;;;;;;5113752;28;20567;-57
2022/06/27 01:59:02;;;;;;;1.67;1.40;;;18.60;99.90;;;;;;5113776;28;20453;-56
2022/06/27 02:01:30;;;;;;;4.23;2.10;;;18.60;99.90;;;;;;5113806;28;20863;-57
2022/06/27 02:04:00;;;;;;;3.40;1.73;;;18.60;99.90;;;;;;5114071;28;20446;-57
2022/06/27 02:06:29;;;;;;;2.20;1.63;;;18.60;99.90;;;;;;5113916;28;20453;-57
2022/06/27 02:08:57;;;;;;;4.23;1.60;;;18.60;99.90;;;;;;5113971;28;20438;-57
2022/06/27 02:11:25;;;;;;;2.50;1.87;;;18.60;99.90;;;;;;5113440;28;20538;-57
2022/06/27 02:13:53;;;;;;;2.40;1.90;;;18.60;99.90;;;;;;5113510;28;20494;-57
2022/06/27 02:16:22;;;;;;;2.50;1.57;;;18.70;99.90;;;;;;5113466;28;20449;-57
2022/06/27 02:18:50;;;;;;;3.67;1.40;;;18.70;99.90;;;;;;5114099;28;20447;-57
2022/06/27 02:21:19;;;;;;;1.60;1.50;;;18.70;99.90;;;;;;5113751;28;20443;-57
2022/06/27 02:23:48;;;;;;;1.93;1.50;;;18.60;99.90;;;;;;5113548;28;20443;-57
2022/06/27 02:26:16;;;;;;;1.70;1.60;;;18.60;99.90;;;;;;5113153;28;20534;-57
2022/06/27 02:28:44;;;;;;;2.30;2.10;;;18.40;99.90;;;;;;5113819;28;20534;-57
2022/06/27 02:31:12;;;;;;;2.60;1.97;;;18.40;99.90;;;;;;5113196;28;20457;-57
2022/06/27 02:33:42;;;;;;;2.00;1.63;;;18.50;99.90;;;;;;5113640;28;20478;-57
2022/06/27 02:36:14;;;;;;;2.73;1.63;;;18.40;99.90;;;;;;5113331;28;20459;-57
2022/06/27 02:38:42;;;;;;;3.20;1.70;;;18.40;99.90;;;;;;5113767;28;20484;-57
2022/06/27 02:41:14;;;;;;;7.90;1.93;;;18.50;99.90;;;;;;5113477;28;20494;-57
2022/06/27 02:43:45;;;;;;;3.70;1.80;;;18.50;99.90;;;;;;5113874;28;20476;-57
2022/06/27 02:46:12;;;;;;;2.33;2.13;;;18.60;99.90;;;;;;5113203;28;20800;-57
2022/06/27 02:48:42;;;;;;;2.27;1.40;;;18.60;99.90;;;;;;5113455;28;20419;-57
2022/06/27 02:51:13;;;;;;;2.70;1.90;;;18.60;99.90;;;;;;5113400;28;20549;-57
2022/06/27 02:53:45;;;;;;;1.73;1.60;;;18.60;99.90;;;;;;5113473;28;20549;-57
2022/06/27 02:56:17;;;;;;;3.70;1.80;;;18.60;99.90;;;;;;5113559;28;20427;-57
2022/06/27 02:58:52;;;;;;;2.23;1.80;;;18.60;99.90;;;;;;5113299;28;20522;-57
2022/06/27 03:01:20;;;;;;;1.73;1.63;;;18.60;99.90;;;;;;5113263;28;20971;-57
2022/06/27 03:03:51;;;;;;;2.23;1.70;;;18.50;99.90;;;;;;5113068;28;20819;-57
2022/06/27 03:06:19;;;;;;;2.27;1.70;;;18.60;99.90;;;;;;5113212;28;20434;-57
2022/06/27 03:08:48;;;;;;;2.77;1.60;;;18.50;99.90;;;;;;5112935;28;20446;-57
2022/06/27 03:11:17;;;;;;;1.93;1.73;;;18.50;99.90;;;;;;5113429;28;20533;-57
2022/06/27 03:13:46;;;;;;;4.00;1.87;;;18.40;99.90;;;;;;5111743;28;20985;-57
2022/06/27 03:16:14;;;;;;;3.83;2.00;;;18.50;99.90;;;;;;5113357;28;20446;-56
2022/06/27 03:18:41;;;;;;;1.83;1.63;;;18.50;99.90;;;;;;5112879;28;20531;-57
2022/06/27 03:21:11;;;;;;;2.80;1.70;;;18.40;99.90;;;;;;5113207;28;20519;-57
2022/06/27 03:23:38;;;;;;;2.40;1.93;;;18.40;99.90;;;;;;5112850;28;20507;-57
2022/06/27 03:26:06;;;;;;;2.40;2.00;;;18.40;99.90;;;;;;5112936;28;20449;-57
2022/06/27 03:28:33;;;;;;;3.40;1.87;;;18.40;99.90;;;;;;5113119;28;20442;-57
2022/06/27 03:31:00;;;;;;;5.63;1.87;;;18.40;99.90;;;;;;5112806;28;20973;-57
2022/06/27 03:33:27;;;;;;;2.00;1.80;;;18.50;99.90;;;;;;5112662;28;20484;-57
2022/06/27 03:35:55;;;;;;;2.00;1.77;;;18.40;99.90;;;;;;5112967;28;20511;-57
2022/06/27 03:38:23;;;;;;;3.13;1.87;;;18.40;99.90;;;;;;5116013;28;20542;-57
2022/06/27 03:40:50;;;;;;;2.23;1.80;;;18.30;99.90;;;;;;5116607;28;20473;-57
2022/06/27 03:43:19;;;;;;;2.90;2.23;;;18.40;99.90;;;;;;5116685;28;20450;-57
2022/06/27 03:45:46;;;;;;;7.20;2.20;;;18.60;99.90;;;;;;5116675;28;20527;-57
2022/06/27 03:49:59;;;;;;;5.00;2.57;;;18.50;99.90;;;;;;5116611;27;20449;-57
2022/06/27 03:51:00;;;;;;;2.43;2.23;;;18.60;99.90;;;;;;5116225;28;20822;-57
2022/06/27 03:53:28;;;;;;;4.20;2.30;;;18.70;99.90;;;;;;5116332;28;20474;-57
2022/06/27 03:55:56;;;;;;;2.80;2.20;;;18.40;99.90;;;;;;5116328;28;20854;-58
2022/06/27 03:58:23;;;;;;;3.17;2.40;;;18.40;99.90;;;;;;5115974;28;20455;-57
2022/06/27 04:00:50;;;;;;;2.53;2.20;;;18.40;99.90;;;;;;5115834;28;20502;-57
2022/06/27 04:03:17;;;;;;;2.03;1.80;;;18.40;99.90;;;;;;5115923;28;20989;-57
2022/06/27 04:05:44;;;;;;;2.83;2.50;;;18.40;99.90;;;;;;5116221;28;20438;-57
2022/06/27 04:08:12;;;;;;;3.67;2.10;;;18.40;99.90;;;;;;5115753;28;20478;-57
2022/06/27 04:10:40;;;;;;;3.00;2.20;;;18.40;99.90;;;;;;5115773;28;20549;-57
2022/06/27 04:13:08;;;;;;;2.77;2.57;;;18.50;99.90;;;;;;5115560;28;20494;-57
2022/06/27 04:15:36;;;;;;;4.20;2.50;;;18.50;99.90;;;;;;5115764;28;20442;-57
2022/06/27 04:18:04;;;;;;;2.90;2.70;;;18.60;99.90;;;;;;5115599;28;20964;-57
2022/06/27 04:20:31;;;;;;;4.90;2.50;;;18.50;99.90;;;;;;5115891;28;20553;-57
2022/06/27 04:22:58;;;;;;;4.20;2.23;;;18.50;99.90;;;;;;5115821;28;20451;-57
2022/06/27 04:25:25;;;;;;;3.40;2.80;;;18.60;99.90;;;;;;5115892;28;20530;-57
2022/06/27 04:28:01;;;;;;;2.40;2.20;;;18.70;99.90;;;;;;5115797;28;20537;-57
2022/06/27 04:30:29;;;;;;;2.60;2.27;;;18.60;99.90;;;;;;5115349;28;20553;-57
2022/06/27 04:32:58;;;;;;;3.17;2.20;;;18.50;99.90;;;;;;5115469;28;20478;-57
2022/06/27 04:35:25;;;;;;;3.97;2.27;;;18.40;99.90;;;;;;5115436;28;20450;-57
2022/06/27 04:37:53;;;;;;;3.30;2.30;;;18.50;99.90;;;;;;5115057;28;20858;-57
2022/06/27 04:40:21;;;;;;;5.30;2.40;;;18.60;99.90;;;;;;5115105;28;20839;-56
2022/06/27 04:42:49;;;;;;;4.23;2.10;;;18.60;99.90;;;;;;5115300;28;20553;-57
2022/06/27 04:45:18;;;;;;;2.20;1.87;;;18.60;99.90;;;;;;5115445;28;20473;-57
2022/06/27 04:47:47;;;;;;;5.27;2.30;;;18.80;99.90;;;;;;5115199;28;20554;-57
2022/06/27 04:50:17;;;;;;;2.70;2.30;;;18.80;99.90;;;;;;5114992;28;20553;-57
2022/06/27 04:52:44;;;;;;;5.10;2.40;;;18.70;99.90;;;;;;5114800;28;20485;-57
2022/06/27 04:55:12;;;;;;;3.03;1.70;;;18.80;99.90;;;;;;5114995;28;20500;-57
2022/06/27 04:57:43;;;;;;;2.90;2.00;;;18.80;99.90;;;;;;5115126;28;20453;-57
2022/06/27 05:00:13;;;;;;;3.70;1.80;;;18.90;99.90;;;;;;5114572;28;20498;-57
2022/06/27 05:02:42;;;;;;;3.03;1.90;;;18.90;99.90;;;;;;5114891;28;20852;-57
2022/06/27 05:05:10;;;;;;;1.93;1.70;;;18.90;99.90;;;;;;5115110;28;20459;-57
2022/06/27 05:07:37;;;;;;;4.00;2.27;;;18.90;99.90;;;;;;5114911;28;20443;-57
2022/06/27 05:10:05;;;;;;;2.60;2.07;;;19.00;99.90;;;;;;5114845;28;20493;-57
2022/06/27 05:12:37;;;;;;;5.43;1.97;;;19.10;99.90;;;;;;5114416;28;20479;-57
2022/06/27 05:15:05;;;;;;;2.67;1.90;;;19.30;99.90;;;;;;5114824;28;20836;-57
2022/06/27 05:17:32;;;;;;;2.67;2.07;;;19.50;99.90;;;;;;5114351;28;20450;-58
2022/06/27 05:20:02;;;;;;;2.57;2.00;;;19.60;99.90;;;;;;5114635;28;20516;-57
2022/06/27 05:22:29;;;;;;;2.03;1.60;;;19.70;99.90;;;;;;5114468;28;20529;-57
2022/06/27 05:24:57;;;;;;;2.27;1.87;;;19.60;99.90;;;;;;5114573;28;20442;-57
2022/06/27 05:27:24;;;;;;;3.73;1.93;;;19.70;99.90;;;;;;5114126;28;20959;-57
2022/06/27 05:29:52;;;;;;;5.40;2.10;;;19.60;99.90;;;;;;5114456;28;20490;-57
2022/06/27 05:32:19;;;;;;;3.80;2.20;;;19.60;99.90;;;;;;5114098;28;20434;-58
2022/06/27 05:34:46;;;;;;;4.30;2.50;;;19.60;99.90;;;;;;5114282;28;20567;-57
2022/06/27 05:37:16;;;;;;;3.40;1.93;;;19.60;99.90;;;;;;5114013;28;20537;-57
2022/06/27 05:39:45;;;;;;;2.10;1.90;;;19.70;99.90;;;;;;5113912;27;20493;-57
2022/06/27 05:42:12;;;;;;;3.60;2.33;;;19.80;99.90;;;;;;5113921;28;20913;-57
2022/06/27 05:44:39;;;;;;;3.57;2.20;;;19.80;99.90;;;;;;5113850;28;20447;-57
2022/06/27 05:47:07;;;;;;;3.87;2.17;;;19.90;99.90;;;;;;5114107;28;20446;-57
2022/06/27 05:49:34;;;;;;;4.20;2.20;;;19.80;99.90;;;;;;5113738;28;20470;-57
2022/06/27 05:52:01;;;;;;;3.70;2.67;;;19.90;99.90;;;;;;5113970;28;20443;-56
2022/06/27 05:54:31;;;;;;;2.80;2.50;;;20.10;99.90;;;;;;5113463;28;20492;-57
2022/06/27 05:56:58;;;;;;;2.97;2.50;;;20.10;99.90;;;;;;5113388;28;20452;-57
2022/06/27 05:59:26;;;;;;;3.90;2.30;;;20.20;99.90;;;;;;5113061;28;20480;-57
2022/06/27 06:01:53;;;;;;;3.87;2.23;;;20.20;99.90;;;;;;5113927;28;20520;-57
2022/06/27 06:04:21;;;;;;;2.80;2.20;;;20.20;99.90;;;;;;5113854;27;20533;-57
2022/06/27 06:06:49;;;;;;;3.63;1.93;;;20.20;99.90;;;;;;5113651;28;20446;-57
2022/06/27 06:09:16;;;;;;;2.27;2.07;;;20.30;99.90;;;;;;5113516;28;20475;-57
2022/06/27 06:11:48;;;;;;;3.43;1.53;;;20.30;99.90;;;;;;5114034;28;20494;-58
2022/06/27 06:14:16;;;;;;;7.30;1.90;;;20.30;99.90;;;;;;5113252;28;21069;-57
2022/06/27 06:16:44;;;;;;;2.73;2.00;;;20.30;99.90;;;;;;5113520;28;20450;-57
2022/06/27 06:19:11;;;;;;;2.10;1.67;;;20.30;99.90;;;;;;5113392;28;20471;-57
2022/06/27 06:21:39;;;;;;;3.87;1.80;;;20.30;99.90;;;;;;5113776;28;20534;-57
2022/06/27 06:24:07;;;;;;;2.47;1.57;;;20.20;99.90;;;;;;5113428;28;20946;-57
2022/06/27 06:26:35;;;;;;;2.90;2.13;;;20.10;99.90;;;;;;5113358;28;20530;-57
2022/06/27 06:29:12;;;;;;;2.37;2.17;;;20.20;99.90;;;;;;5113492;28;20485;-57
2022/06/27 06:31:41;;;;;;;3.27;2.10;;;20.40;99.90;;;;;;5113639;28;20430;-57
2022/06/27 06:34:09;;;;;;;2.90;2.13;;;20.60;99.90;;;;;;5113294;28;20567;-57
2022/06/27 06:36:38;;;;;;;1.93;1.50;;;20.80;99.90;;;;;;5113512;28;20450;-57
2022/06/27 06:39:06;;;;;;;1.60;1.50;;;20.80;99.90;;;;;;5113380;28;20501;-58
2022/06/27 06:41:35;;;;;;;1.70;1.60;;;21.00;99.90;;;;;;5113526;28;20470;-57
2022/06/27 06:44:05;;;;;;;2.47;1.77;;;21.10;99.90;;;;;;5113106;28;20427;-57
2022/06/27 06:46:33;;;;;;;3.50;1.60;;;20.80;99.90;;;;;;5113408;28;20449;-57
2022/06/27 06:49:06;;;;;;;1.90;1.60;;;20.70;99.90;;;;;;5113290;28;20575;-57
2022/06/27 06:51:35;;;;;;;5.07;1.97;;;20.80;99.90;;;;;;5113113;28;20431;-57
2022/06/27 06:54:03;;;;;;;3.50;1.70;;;20.90;99.90;;;;;;5113094;28;20478;-57
2022/06/27 06:56:31;;;;;;;3.00;1.80;;;21.00;99.90;;;;;;5113447;28;20453;-57
2022/06/27 06:58:59;;;;;;;1.73;1.60;;;21.30;99.90;;;;;;5113222;28;20503;-57
2022/06/27 07:01:28;;;;;;;1.60;1.50;;;21.20;99.90;;;;;;5113002;28;20849;-57
2022/06/27 07:03:56;;;;;;;2.03;1.83;;;;;;;;;;5112955;28;20951;-57
2022/06/27 07:06:25;;;;;;;1.63;1.50;;;22.20;99.90;;;;;;5113215;28;20462;-57
2022/06/27 07:08:55;;;;;;;4.00;3.00;;;22.50;99.90;;;;;;5113071;28;20805;-57
2022/06/27 07:11:23;;;;;;;3.83;1.57;;;22.40;99.90;;;;;;5113028;28;20539;-57
2022/06/27 07:13:51;;;;;;;1.70;1.50;;;22.90;99.90;;;;;;5116341;28;20511;-57
2022/06/27 07:16:18;;;;;;;5.00;1.50;;;22.90;99.90;;;;;;5117139;28;20443;-57
2022/06/27 07:18:47;;;;;;;1.60;1.50;;;22.70;99.90;;;;;;5116993;28;20460;-57
2022/06/27 07:21:16;;;;;;;1.40;1.30;;;22.50;99.90;;;;;;5116732;28;20925;-60
2022/06/27 07:23:44;;;;;;;4.40;1.53;;;22.40;99.90;;;;;;5116963;28;20444;-57
2022/06/27 07:26:12;;;;;;;1.40;1.30;;;22.70;99.90;;;;;;5116733;28;20450;-57
2022/06/27 07:28:40;;;;;;;2.37;1.50;;;23.30;99.90;;;;;;5116818;28;20461;-57
2022/06/27 07:31:08;;;;;;;2.57;1.50;;;23.60;99.90;;;;;;5116784;28;20470;-57
2022/06/27 07:33:38;;;;;;;1.53;1.40;;;23.90;99.90;;;;;;5116404;28;20485;-58
2022/06/27 07:36:08;;;;;;;3.67;1.60;;;23.70;99.90;;;;;;5116509;28;20449;-57
2022/06/27 07:38:38;;;;;;;1.83;1.50;;;23.50;99.90;;;;;;5116481;28;20454;-57
2022/06/27 07:41:05;;;;;;;3.20;1.53;;;23.30;99.90;;;;;;5116752;28;20466;-58
2022/06/27 07:43:33;;;;;;;1.93;1.40;;;23.40;99.90;;;;;;5116517;28;20501;-57
2022/06/27 07:46:02;;;;;;;2.47;1.33;;;23.20;99.90;;;;;;5116322;28;20458;-57
2022/06/27 07:48:29;;;;;;;1.53;1.40;;;23.80;99.90;;;;;;5116044;28;20446;-58
2022/06/27 07:50:57;;;;;;;1.30;1.20;;;24.30;99.90;;;;;;5116108;28;20545;-58
2022/06/27 07:53:27;;;;;;;1.73;1.20;;;24.10;99.90;;;;;;5115889;28;20537;-58
2022/06/27 07:55:56;;;;;;;1.90;1.40;;;23.80;99.90;;;;;;5116514;28;20484;-57
2022/06/27 07:58:26;;;;;;;2.33;1.50;;;23.70;99.90;;;;;;5116344;28;20849;-57
2022/06/27 08:00:53;;;;;;;2.60;2.17;;;23.20;99.90;;;;;;5116454;28;20524;-57
2022/06/27 08:03:40;;;;;;;1.50;1.10;;;23.40;99.90;;;;;;5115781;28;20830;-57
2022/06/27 08:06:10;;;;;;;1.90;1.50;;;23.60;99.90;;;;;;5116199;28;20827;-58
2022/06/27 08:08:41;;;;;;;2.10;1.73;;;23.90;99.90;;;;;;5116145;28;20810;-58
2022/06/27 08:11:11;;;;;;;1.47;1.20;;;24.70;99.90;;;;;;5116098;27;20467;-57
2022/06/27 08:13:40;;;;;;;2.17;1.30;;;25.50;99.90;;;;;;5115630;28;20572;-58
2022/06/27 08:16:09;;;;;;;1.67;1.13;;;26.20;99.90;;;;;;5116037;27;20453;-58
2022/06/27 08:18:38;;;;;;;1.53;1.30;;;;;;;;;;5116044;28;20545;-58
2022/06/27 08:21:08;;;;;;;2.03;1.20;;;27.50;99.90;;;;;;5115891;28;20467;-58
2022/06/27 08:23:37;;;;;;;1.80;1.40;;;27.50;99.90;;;;;;5115456;28;20458;-58
2022/06/27 08:26:07;;;;;;;1.20;1.10;;;27.50;99.90;;;;;;5115492;28;20442;-57
2022/06/27 08:28:35;;;;;;;1.77;1.10;;;27.80;99.90;;;;;;5115660;28;20423;-58
2022/06/27 08:31:03;;;;;;;1.40;1.30;;;27.50;99.90;;;;;;5115468;28;20502;-58
2022/06/27 08:33:31;;;;;;;1.73;1.30;;;27.00;99.90;;;;;;5115574;28;20438;-58
2022/06/27 08:36:00;;;;;;;1.30;1.20;;;26.70;99.90;;;;;;5115369;28;20450;-58
2022/06/27 08:38:28;;;;;;;2.13;1.47;;;27.00;99.90;;;;;;5115372;28;21007;-58
2022/06/27 08:40:56;;;;;;;2.33;1.30;;;27.30;99.90;;;;;;5115319;28;20515;-58
2022/06/27 08:43:26;;;;;;;1.30;1.20;;;27.40;99.90;;;;;;5115505;28;20486;-58
2022/06/27 08:45:54;;;;;;;2.43;1.40;;;26.90;99.90;;;;;;5114968;28;20937;-58
2022/06/27 08:48:21;;;;;;;3.83;1.40;;;26.30;99.90;;;;;;5115482;28;20516;-58
2022/06/27 08:50:51;;;;;;;1.40;1.20;;;26.30;99.90;;;;;;5115258;28;20473;-58
2022/06/27 08:53:19;;;;;;;1.50;1.40;;;26.50;99.90;;;;;;5115677;28;20533;-58
2022/06/27 08:55:48;;;;;;;2.90;1.40;;;26.30;99.90;;;;;;5114704;28;20474;-58
2022/06/27 08:58:16;;;;;;;1.67;1.30;;;25.60;99.90;;;;;;5114924;28;20491;-57
2022/06/27 09:00:46;;;;;;;1.60;1.50;;;25.30;99.90;;;;;;5114573;28;20467;-58
2022/06/27 09:03:15;;;;;;;2.63;1.63;;;24.90;99.90;;;;;;5114924;28;20407;-58
2022/06/27 09:05:44;;;;;;;2.03;1.50;;;24.60;99.90;;;;;;5114987;28;20443;-58
2022/06/27 09:08:12;;;;;;;1.73;1.63;;;24.50;99.90;;;;;;5115028;28;20992;-58
2022/06/27 09:10:42;;;;;;;1.40;1.30;;;24.30;99.90;;;;;;5114388;28;20829;-58
2022/06/27 09:13:11;;;;;;;1.40;1.30;;;24.20;99.90;;;;;;5114807;28;20482;-58
2022/06/27 09:15:54;;;;;;;1.50;1.23;;;23.90;99.90;;;;;;5114482;28;21057;-58
2022/06/27 09:18:22;;;;;;;1.53;1.43;;;;;;;;;;5114382;28;20521;-57
2022/06/27 09:20:53;;;;;;;2.47;2.27;;;23.90;99.90;;;;;;5114763;28;20884;-58
2022/06/27 09:23:42;;;;;;;2.73;2.00;;;23.60;99.90;;;;;;5114480;28;20802;-58
2022/06/27 09:26:12;;;;;;;2.33;1.90;;;23.30;99.90;;;;;;5114422;28;20419;-58
2022/06/27 09:28:58;;;;;;;2.63;1.73;;;23.40;99.90;;;;;;5114529;28;20421;-58
2022/06/27 09:31:42;;;;;;;2.23;1.97;;;23.40;99.90;;;;;;5114256;28;20458;-58
2022/06/27 09:34:14;;;;;;;2.00;1.60;;;23.50;99.90;;;;;;5113912;28;20466;-58
2022/06/27 09:36:43;;;;;;;2.07;1.97;;;23.60;99.90;;;;;;5114146;28;20476;-58
2022/06/27 09:39:18;;;;;;;2.10;1.90;;;23.50;99.90;;;;;;5113937;28;20500;-59
2022/06/27 09:41:50;;;;;;;1.90;1.70;;;23.60;99.90;;;;;;5113945;28;20454;-58
2022/06/27 09:44:22;;;;;;;1.43;1.33;;;23.50;99.90;;;;;;5113912;28;20492;-57
2022/06/27 09:47:00;;;;;;;2.00;1.73;;;23.60;99.90;;;;;;5114404;28;20789;-57
2022/06/27 09:49:33;;;;;;;2.03;1.40;;;24.10;99.90;;;;;;5113826;28;20524;-58
2022/06/27 09:52:05;;;;;;;1.57;1.43;;;24.50;99.90;;;;;;5114105;28;20431;-58
2022/06/27 09:54:34;;;;;;;1.83;1.73;;;25.00;99.90;;;;;;5114380;28;20466;-58
2022/06/27 09:57:01;;;;;;;1.70;1.60;;;25.60;99.90;;;;;;5113961;28;20450;-59
2022/06/27 09:59:30;;;;;;;2.23;1.77;;;26.80;99.90;;;;;;5113696;28;20473;-58
2022/06/27 10:01:58;;;;;;;1.50;1.30;;;26.80;99.90;;;;;;5113575;28;20446;-59
2022/06/27 10:04:28;;;;;;;1.57;1.40;;;27.30;99.90;;;;;;5114000;28;20447;-59
2022/06/27 10:06:58;;;;;;;1.73;1.63;;;27.50;99.90;;;;;;5113484;28;20450;-59
2022/06/27 10:09:26;;;;;;;1.90;1.70;;;27.40;99.90;;;;;;5113956;28;20502;-58
2022/06/27 10:12:26;;;;;;;2.30;1.70;;;26.80;99.90;;;;;;5113545;28;20949;-59
2022/06/27 10:15:22;;;;;;;1.97;1.77;;;26.20;99.90;;;;;;5113332;28;21033;-59
2022/06/27 10:17:53;;;;;;;3.27;2.27;;;25.50;99.90;;;;;;5113751;28;20796;-57
2022/06/27 10:20:28;;;;;;;2.37;1.90;;;25.20;99.90;;;;;;5113632;28;20466;-59
2022/06/27 10:23:31;;;;;;;2.97;2.20;;;25.00;99.90;;;;;;5113713;28;20450;-57
2022/06/27 10:26:01;;;;;;;2.43;2.23;;;24.50;99.90;;;;;;5113838;28;20772;-58
2022/06/27 10:28:28;;;;;;;2.27;2.07;;;24.30;99.90;;;;;;5113875;28;20447;-59
2022/06/27 10:30:56;;;;;;;2.20;2.10;;;24.10;99.90;;;;;;5113199;28;20462;-58
2022/06/27 10:33:38;;;;;;;4.03;2.40;;;24.00;99.90;;;;;;5113684;28;20534;-58
2022/06/27 10:36:15;;;;;;;3.53;3.23;;;24.00;99.90;;;;;;5113432;28;20968;-58
2022/06/27 10:38:52;;;;;;;2.67;2.43;;;23.90;99.90;;;;;;5113313;28;20893;-58
2022/06/27 10:41:42;;;;;;;2.40;2.20;;;24.00;99.90;;;;;;5113479;28;20897;-57
2022/06/27 10:44:32;;;;;;;3.00;2.80;;;24.10;99.90;;;;;;5113691;28;20484;-58
2022/06/27 10:46:59;;;;;;;4.07;3.13;;;23.80;99.90;;;;;;5116169;28;20812;-58
2022/06/27 10:49:34;;;;;;;3.97;3.60;;;23.70;99.90;;;;;;5117400;28;20580;-58
2022/06/27 10:52:34;;;;;;;3.43;3.13;;;23.60;99.90;;;;;;5117744;28;20434;-58
2022/06/27 10:55:02;;;;;;;2.80;2.50;;;23.50;99.90;;;;;;5117165;28;20546;-58
2022/06/27 10:57:44;;;;;;;3.20;3.00;;;23.50;99.90;;;;;;5116967;28;20537;-58
2022/06/27 11:00:33;;;;;;;4.13;3.33;;;23.40;99.90;;;;;;5117603;28;20506;-56
2022/06/27 11:03:01;;;;;;;3.33;3.03;;;23.50;99.90;;;;;;5116592;28;20489;-58
2022/06/27 11:05:32;;;;;;;3.40;3.10;;;23.50;99.90;;;;;;5116733;28;20541;-58
2022/06/27 11:08:00;;;;;;;2.80;2.57;;;23.20;99.90;;;;;;5117740;28;20789;-58
2022/06/27 11:10:28;;;;;;;2.63;2.33;;;23.30;99.90;;;;;;5116734;28;20968;-58
2022/06/27 11:12:55;;;;;;;3.30;2.70;;;23.40;99.90;;;;;;5116494;28;20533;-58
2022/06/27 11:15:23;;;;;;;3.23;2.23;;;23.50;99.90;;;;;;5116806;28;20841;-58
2022/06/27 11:17:50;;;;;;;3.40;3.00;;;23.40;99.90;;;;;;5116623;27;20538;-58
2022/06/27 11:20:23;;;;;;;2.77;2.57;;;23.30;99.90;;;;;;5116800;28;20498;-58
2022/06/27 11:22:57;;;;;;;3.40;2.50;;;23.50;99.90;;;;;;5116516;28;20492;-58
2022/06/27 11:25:27;;;;;;;2.63;2.40;;;23.70;99.90;;;;;;5116635;28;20423;-58
2022/06/27 11:27:56;;;;;;;3.10;2.80;;;23.70;99.90;;;;;;5116863;27;20446;-58
2022/06/27 11:33:33;;;;;;;2.77;2.57;;;23.50;99.90;;;;;;5073606;28;20424;-58
2022/06/27 11:36:01;;;;;;;2.70;2.50;;;23.70;99.90;;;;;;5073530;28;20484;-59
2022/06/27 11:38:31;;;;;;;5.20;3.00;;;23.80;99.90;;;;;;5092979;27;20455;-58
2022/06/27 11:41:07;;;;;;;2.70;2.50;;;23.60;99.90;;;;;;5116338;27;20834;-58
2022/06/27 11:43:58;;;;;;;3.07;2.80;;;23.30;99.90;;;;;;5116820;28;20837;-58
2022/06/27 11:46:31;;;;;;;3.93;2.80;;;23.30;99.90;;;;;;5116229;28;20898;-57
2022/06/27 11:49:01;;;;;;;3.07;2.77;;;23.20;99.90;;;;;;5116489;28;20478;-58
2022/06/27 11:51:31;;;;;;;2.90;2.70;;;23.30;99.90;;;;;;5116163;28;20455;-58
2022/06/27 11:54:02;;;;;;;3.43;3.03;;;23.30;99.90;;;;;;5115701;28;20443;-57
2022/06/27 11:56:31;;;;;;;3.50;2.80;;;23.10;99.90;;;;;;5115873;28;20467;-57
2022/06/27 11:59:00;;;;;;;3.00;2.80;;;22.80;99.90;;;;;;5115283;28;20496;-57
2022/06/27 12:01:28;;;;;;;3.17;2.83;;;22.80;99.90;;;;;;5115776;28;20485;-57
2022/06/27 12:04:17;;;;;;;5.33;2.30;;;23.00;99.90;;;;;;5115754;28;20446;-58
2022/06/27 12:06:47;;;;;;;2.60;2.40;;;23.10;99.90;;;;;;5111390;28;20458;-57
2022/06/27 12:09:15;;;;;;;3.07;2.30;;;23.10;99.90;;;;;;5115701;28;20465;-58
2022/06/27 12:11:55;;;;;;;4.30;2.83;;;23.20;99.90;;;;;;5115555;28;20445;-58
2022/06/27 12:14:23;;;;;;;2.67;2.47;;;23.10;99.90;;;;;;5115532;28;20470;-58
2022/06/27 12:16:54;;;;;;;5.60;2.27;;;22.80;99.90;;;;;;5115872;28;20573;-58
2022/06/27 12:19:22;;;;;;;3.03;2.53;;;22.70;99.90;;;;;;5115679;28;20510;-58
2022/06/27 12:21:49;;;;;;;3.90;2.37;;;;;;;;;;5115792;28;20451;-58
2022/06/27 12:24:18;;;;;;;2.50;2.30;;;22.40;99.90;;;;;;5115658;28;20905;-58
2022/06/27 12:26:45;;;;;;;3.07;2.83;;;22.40;99.90;;;;;;5115269;28;20478;-58
2022/06/27 12:29:13;;;;;;;2.50;2.30;;;22.50;99.90;;;;;;5115705;28;20474;-58
2022/06/27 12:31:41;;;;;;;2.87;2.67;;;22.50;99.90;;;;;;5115403;28;20446;-58
2022/06/27 12:34:08;;;;;;;4.70;2.47;;;22.50;99.90;;;;;;5115124;28;20458;-58
2022/06/27 12:36:36;;;;;;;2.60;2.40;;;22.40;99.90;;;;;;5115169;28;20920;-58
2022/06/27 12:39:06;;;;;;;2.57;2.37;;;22.40;99.90;;;;;;5115327;28;20521;-58
2022/06/27 12:41:35;;;;;;;2.37;2.17;;;22.30;99.90;;;;;;5115300;28;20447;-58
2022/06/27 12:44:02;;;;;;;3.03;2.73;;;22.20;99.90;;;;;;5115121;28;20522;-58
2022/06/27 12:46:30;;;;;;;2.83;2.57;;;22.20;99.90;;;;;;5114947;28;20439;-58
2022/06/27 12:48:57;;;;;;;2.70;2.50;;;22.20;99.90;;;;;;5114956;28;20443;-58
2022/06/27 12:51:26;;;;;;;5.03;2.53;;;22.30;99.90;;;;;;5115022;28;20815;-58
2022/06/27 12:53:54;;;;;;;2.80;2.60;;;22.50;99.90;;;;;;5114968;28;20438;-58
2022/06/27 12:56:25;;;;;;;3.23;2.93;;;22.50;99.90;;;;;;5114587;28;20486;-58
2022/06/27 12:58:54;;;;;;;4.50;3.03;;;22.50;99.90;;;;;;5114717;28;20431;-58
2022/06/27 13:01:22;;;;;;;4.03;3.77;;;22.40;99.90;;;;;;5114346;28;20450;-58
2022/06/27 13:03:49;;;;;;;2.93;2.70;;;22.30;99.90;;;;;;5114907;28;20446;-58